createdAt,value
2022-10-15T00:00:20.834Z,88.02
2022-10-15T00:03:16.459Z,88.31
2022-10-15T00:05:51.736Z,88.61
2022-10-15T00:08:28.652Z,88.70
2022-10-15T00:11:05.756Z,88.78
2022-10-15T00:13:35.118Z,88.71
2022-10-15T00:16:04.914Z,88.96
2022-10-15T00:18:37.886Z,88.89
2022-10-15T00:21:15.978Z,88.58
2022-10-15T00:23:45.805Z,88.44
2022-10-15T00:26:26.160Z,88.38
2022-10-15T00:28:58.643Z,88.44
2022-10-15T00:31:30.068Z,88.50
2022-10-15T00:34:03.546Z,88.62
2022-10-15T00:36:35.600Z,88.84
2022-10-15T00:39:11.288Z,88.93
2022-10-15T00:41:46.608Z,89.01
2022-10-15T00:44:22.858Z,89.04
2022-10-15T00:47:28.323Z,89.10
2022-10-15T00:50:10.981Z,89.10
2022-10-15T00:53:00.510Z,89.10
2022-10-15T00:55:39.125Z,89.01
2022-10-15T01:00:47.938Z,89.10
2022-10-15T01:03:16.837Z,89.04
2022-10-15T01:05:51.395Z,89.00
2022-10-15T01:08:20.124Z,89.13
2022-10-15T01:11:16.174Z,89.32
2022-10-15T01:14:23.941Z,89.54
2022-10-15T01:17:13.935Z,89.82
2022-10-15T01:20:25.783Z,90.04
2022-10-15T01:24:09.382Z,90.32
2022-10-15T01:27:15.062Z,90.51
2022-10-15T01:30:20.154Z,90.76
2022-10-15T01:33:10.343Z,90.71
2022-10-15T01:35:52.049Z,90.58
2022-10-15T01:38:41.437Z,90.50
2022-10-15T01:41:19.953Z,90.42
2022-10-15T01:44:09.453Z,90.54
2022-10-15T01:47:02.151Z,90.40
2022-10-15T01:49:44.680Z,90.39
2022-10-15T01:52:26.698Z,90.31
2022-10-15T01:55:01.578Z,90.29
2022-10-15T01:57:33.200Z,90.25
2022-10-15T02:00:04.766Z,90.15
2022-10-15T02:02:40.252Z,90.11
2022-10-15T02:05:31.172Z,89.96
2022-10-15T02:08:25.672Z,89.89
2022-10-15T02:11:11.922Z,89.80
2022-10-15T02:14:05.151Z,89.80
2022-10-15T02:17:12.139Z,89.99
2022-10-15T02:20:10.345Z,89.93
2022-10-15T02:23:18.083Z,89.75
2022-10-15T02:26:04.168Z,89.79
2022-10-15T02:29:05.613Z,89.82
2022-10-15T02:31:55.720Z,89.81
2022-10-15T02:34:41.964Z,89.85
2022-10-15T02:37:54.849Z,89.78
2022-10-15T02:41:12.714Z,89.81
2022-10-15T02:48:42.249Z,89.68
2022-10-15T02:51:11.023Z,89.61
2022-10-15T02:53:42.590Z,89.58
2022-10-15T02:56:11.205Z,89.54
2022-10-15T02:58:40.093Z,89.70
2022-10-15T03:01:09.523Z,89.55
2022-10-15T03:03:44.976Z,89.49
2022-10-15T03:06:16.116Z,89.43
2022-10-15T03:08:49.861Z,89.44
2022-10-15T03:11:18.961Z,89.56
2022-10-15T03:13:48.162Z,89.50
2022-10-15T03:16:17.440Z,89.48
2022-10-15T03:18:54.871Z,89.51
2022-10-15T03:21:24.154Z,89.48
2022-10-15T03:23:53.358Z,89.51
2022-10-15T03:26:22.941Z,89.54
2022-10-15T03:28:52.595Z,89.55
2022-10-15T03:31:24.422Z,89.43
2022-10-15T03:34:13.434Z,89.31
2022-10-15T03:36:43.369Z,89.22
2022-10-15T03:42:16.780Z,89.15
2022-10-15T03:44:46.166Z,89.18
2022-10-15T03:47:15.550Z,89.10
2022-10-15T03:49:45.439Z,89.02
2022-10-15T03:52:15.030Z,88.96
2022-10-15T03:54:44.447Z,89.08
2022-10-15T03:57:13.665Z,89.00
2022-10-15T04:02:11.823Z,88.84
2022-10-15T04:04:41.893Z,88.75
2022-10-15T04:07:11.822Z,88.67
2022-10-15T04:09:41.033Z,88.64
2022-10-15T04:12:10.310Z,88.60
2022-10-15T04:14:41.069Z,88.51
2022-10-15T04:17:10.723Z,88.44
2022-10-15T04:19:43.682Z,88.38
2022-10-15T04:22:43.003Z,88.29
2022-10-15T04:25:18.337Z,88.21
2022-10-15T04:27:48.430Z,88.14
2022-10-15T04:30:37.761Z,87.99
2022-10-15T04:36:48.612Z,87.72
2022-10-15T04:39:27.416Z,87.68
2022-10-15T04:42:04.321Z,87.62
2022-10-15T04:45:12.727Z,87.60
2022-10-15T04:47:51.495Z,87.55
2022-10-15T04:50:20.871Z,87.52
2022-10-15T04:53:42.546Z,87.52
2022-10-15T04:56:31.861Z,87.41
2022-10-15T04:59:46.444Z,87.35
2022-10-15T05:02:17.380Z,87.32
2022-10-15T05:04:48.439Z,87.32
2022-10-15T05:07:19.343Z,87.31
2022-10-15T05:09:49.934Z,87.35
2022-10-15T05:12:22.040Z,87.25
2022-10-15T05:14:54.421Z,87.20
2022-10-15T05:17:27.393Z,87.19
2022-10-15T05:19:58.284Z,87.20
2022-10-15T05:22:33.645Z,87.19
2022-10-15T05:25:06.914Z,87.16
2022-10-15T05:27:36.748Z,87.11
2022-10-15T05:30:09.365Z,87.10
2022-10-15T05:32:40.143Z,87.10
2022-10-15T05:35:09.335Z,87.11
2022-10-15T05:37:37.945Z,87.10
2022-10-15T05:40:07.264Z,87.13
2022-10-15T05:42:36.744Z,87.09
2022-10-15T05:45:07.144Z,87.03
2022-10-15T05:47:35.944Z,87.01
2022-10-15T05:50:09.497Z,87.00
2022-10-15T05:52:40.734Z,87.06
2022-10-15T05:55:10.124Z,87.10
2022-10-15T05:57:39.783Z,87.06
2022-10-15T06:00:10.113Z,86.97
2022-10-15T06:02:39.533Z,86.89
2022-10-15T06:05:08.543Z,86.81
2022-10-15T06:07:37.335Z,86.79
2022-10-15T06:10:06.732Z,86.85
2022-10-15T06:12:35.734Z,86.83
2022-10-15T06:15:05.794Z,86.77
2022-10-15T06:17:35.062Z,86.69
2022-10-15T06:20:04.173Z,86.56
2022-10-15T06:22:32.792Z,86.50
2022-10-15T06:25:01.526Z,86.60
2022-10-15T06:27:31.204Z,86.61
2022-10-15T06:29:59.925Z,86.59
2022-10-15T06:32:28.605Z,86.60
2022-10-15T06:34:57.293Z,86.52
2022-10-15T06:37:26.079Z,86.40
2022-10-15T06:39:55.194Z,86.35
2022-10-15T06:42:23.760Z,86.46
2022-10-15T06:44:52.356Z,86.47
2022-10-15T06:47:21.144Z,86.48
2022-10-15T06:49:49.924Z,86.40
2022-10-15T06:52:18.705Z,86.46
2022-10-15T06:54:47.305Z,86.43
2022-10-15T06:57:16.394Z,86.46
2022-10-15T06:59:44.895Z,86.32
2022-10-15T07:02:18.084Z,86.41
2022-10-15T07:04:47.845Z,86.50
2022-10-15T07:07:16.576Z,86.39
2022-10-15T07:09:47.308Z,86.35
2022-10-15T07:12:16.915Z,86.21
2022-10-15T07:14:45.488Z,86.32
2022-10-15T07:17:14.076Z,86.20
2022-10-15T07:19:44.104Z,86.02
2022-10-15T07:22:12.897Z,85.88
2022-10-15T07:24:41.454Z,85.79
2022-10-15T07:27:18.713Z,85.57
2022-10-15T07:29:47.953Z,85.33
2022-10-15T07:32:16.538Z,85.27
2022-10-15T07:34:45.127Z,85.17
2022-10-15T07:37:13.706Z,85.10
2022-10-15T07:39:42.305Z,85.04
2022-10-15T07:42:10.875Z,84.79
2022-10-15T07:44:39.664Z,84.69
2022-10-15T07:47:08.564Z,84.63
2022-10-15T07:49:37.161Z,84.60
2022-10-15T07:52:05.937Z,84.60
2022-10-15T07:54:35.454Z,84.49
2022-10-15T07:57:04.338Z,84.41
2022-10-15T07:59:33.649Z,84.41
2022-10-15T08:02:02.514Z,84.41
2022-10-15T08:04:31.408Z,84.43
2022-10-15T08:07:00.109Z,84.43
2022-10-15T08:09:29.194Z,84.34
2022-10-15T08:11:57.776Z,84.20
2022-10-15T08:14:26.474Z,83.96
2022-10-15T08:16:55.145Z,83.91
2022-10-15T08:19:23.980Z,83.77
2022-10-15T08:21:52.645Z,83.72
2022-10-15T08:24:21.713Z,83.40
2022-10-15T08:26:50.827Z,83.17
2022-10-15T08:29:20.700Z,83.12
2022-10-15T08:31:50.255Z,83.17
2022-10-15T08:34:19.333Z,83.14
2022-10-15T08:36:47.764Z,83.13
2022-10-15T08:39:16.414Z,83.09
2022-10-15T08:42:03.447Z,82.99
2022-10-15T08:45:01.695Z,83.09
2022-10-15T08:47:45.854Z,83.26
2022-10-15T08:50:36.855Z,83.44
2022-10-15T08:53:05.742Z,83.42
2022-10-15T08:55:43.541Z,83.27
2022-10-15T08:58:26.175Z,83.13
2022-10-15T09:01:28.025Z,83.07
2022-10-15T09:04:14.980Z,82.80
2022-10-15T09:06:44.366Z,82.75
2022-10-15T09:09:44.875Z,82.78
2022-10-15T09:12:51.344Z,82.60
2022-10-15T09:15:26.955Z,82.43
2022-10-15T09:17:57.024Z,82.30
2022-10-15T09:20:36.467Z,82.24
2022-10-15T09:23:20.188Z,82.05
2022-10-15T09:26:10.193Z,81.90
2022-10-15T09:29:04.516Z,81.42
2022-10-15T09:31:54.927Z,81.29
2022-10-15T09:34:37.675Z,81.09
2022-10-15T09:37:20.182Z,81.08
2022-10-15T09:40:12.436Z,81.04
2022-10-15T09:42:44.493Z,80.67
2022-10-15T09:45:16.454Z,80.34
2022-10-15T09:47:45.757Z,80.26
2022-10-15T09:50:15.545Z,80.08
2022-10-15T09:52:56.135Z,79.79
2022-10-15T09:55:49.512Z,79.31
2022-10-15T09:58:25.844Z,79.45
2022-10-15T10:01:07.730Z,79.30
2022-10-15T10:03:38.464Z,78.98
2022-10-15T10:06:14.334Z,78.65
2022-10-15T10:08:51.451Z,78.60
2022-10-15T10:11:22.689Z,78.45
2022-10-15T10:13:59.139Z,78.18
2022-10-15T10:16:30.497Z,78.14
2022-10-15T10:19:16.782Z,78.34
2022-10-15T10:21:47.066Z,78.31
2022-10-15T10:24:32.494Z,78.15
2022-10-15T10:29:41.533Z,78.04
2022-10-15T10:32:22.115Z,77.92
2022-10-15T10:34:52.867Z,77.76
2022-10-15T10:37:22.540Z,77.52
2022-10-15T10:40:01.256Z,77.24
2022-10-15T10:42:35.399Z,77.02
2022-10-15T10:45:35.215Z,76.80
2022-10-15T10:48:22.989Z,76.93
2022-10-15T10:51:11.144Z,76.66
2022-10-15T10:54:05.361Z,76.18
2022-10-15T10:56:45.585Z,75.60
2022-10-15T10:59:41.875Z,75.44
2022-10-15T11:02:13.141Z,75.09
2022-10-15T11:04:42.754Z,74.74
2022-10-15T11:07:35.593Z,74.72
2022-10-15T11:10:23.826Z,74.02
2022-10-15T11:16:24.574Z,73.43
2022-10-15T11:19:19.698Z,73.56
2022-10-15T11:22:24.982Z,73.18
2022-10-15T11:25:06.666Z,72.76
2022-10-15T11:28:06.439Z,72.53
2022-10-15T11:31:09.472Z,72.44
2022-10-15T11:34:19.270Z,71.88
2022-10-15T11:37:06.590Z,71.57
2022-10-15T11:40:00.087Z,71.02
2022-10-15T11:42:59.840Z,71.31
2022-10-15T11:46:00.632Z,70.94
2022-10-15T11:48:56.351Z,69.80
2022-10-15T11:52:04.353Z,68.97
2022-10-15T11:54:45.319Z,68.63
2022-10-15T11:57:19.451Z,68.62
2022-10-15T12:00:04.931Z,68.95
2022-10-15T12:02:39.173Z,68.60
2022-10-15T12:05:34.778Z,68.96
2022-10-15T12:10:58.102Z,69.10
2022-10-15T12:13:39.631Z,69.17
2022-10-15T12:16:42.208Z,68.85
2022-10-15T12:19:21.551Z,68.22
2022-10-15T12:22:00.166Z,68.25
2022-10-15T12:24:52.099Z,68.68
2022-10-15T12:27:20.848Z,69.19
2022-10-15T12:30:13.379Z,69.04
2022-10-15T12:32:48.980Z,68.37
2022-10-15T12:35:24.240Z,67.96
2022-10-15T12:37:53.202Z,67.75
2022-10-15T12:40:21.690Z,67.61
2022-10-15T12:42:55.810Z,67.79
2022-10-15T12:45:39.169Z,67.67
2022-10-15T12:48:09.270Z,67.31
2022-10-15T12:50:37.930Z,67.23
2022-10-15T12:53:26.596Z,67.24
2022-10-15T12:56:11.056Z,67.17
2022-10-15T12:58:47.150Z,67.17
2022-10-15T13:01:15.678Z,67.47
2022-10-15T13:03:50.771Z,67.79
2022-10-15T13:06:22.596Z,68.18
2022-10-15T13:09:28.965Z,68.55
2022-10-15T13:12:01.190Z,68.74
2022-10-15T13:14:38.620Z,68.88
2022-10-15T13:17:18.571Z,69.12
2022-10-15T13:20:27.600Z,69.49
2022-10-15T13:23:36.877Z,69.69
2022-10-15T13:26:21.661Z,70.15
2022-10-15T13:28:55.573Z,70.05
2022-10-15T13:31:37.165Z,70.28
2022-10-15T13:34:24.732Z,70.33
2022-10-15T13:36:57.149Z,70.19
2022-10-15T13:39:42.579Z,70.19
2022-10-15T13:42:24.548Z,70.31
2022-10-15T13:45:19.578Z,70.38
2022-10-15T13:47:55.500Z,70.58
2022-10-15T13:50:35.533Z,70.87
2022-10-15T13:53:10.220Z,70.92
2022-10-15T13:55:48.940Z,71.44
2022-10-15T13:58:31.132Z,72.20
2022-10-15T14:01:21.886Z,72.54
2022-10-15T14:04:46.324Z,72.61
2022-10-15T14:07:28.171Z,72.63
2022-10-15T14:10:39.900Z,72.65
2022-10-15T14:13:22.079Z,72.49
2022-10-15T14:16:46.710Z,72.23
2022-10-15T14:19:44.309Z,71.93
2022-10-15T14:22:21.020Z,71.64
2022-10-15T14:24:57.592Z,71.38
2022-10-15T14:27:29.333Z,71.47
2022-10-15T14:30:46.381Z,71.57
2022-10-15T14:33:40.201Z,71.61
2022-10-15T14:36:30.501Z,71.74
2022-10-15T14:39:34.851Z,71.99
2022-10-15T14:42:27.589Z,71.94
2022-10-15T14:44:56.330Z,72.01
2022-10-15T14:47:27.903Z,72.03
2022-10-15T14:50:02.795Z,72.01
2022-10-15T14:55:42.859Z,72.24
2022-10-15T14:58:24.301Z,72.36
2022-10-15T15:01:06.783Z,72.16
2022-10-15T15:03:43.970Z,72.24
2022-10-15T15:06:15.713Z,72.46
2022-10-15T15:08:46.691Z,72.71
2022-10-15T15:11:23.570Z,72.94
2022-10-15T15:14:01.860Z,73.02
2022-10-15T15:17:00.481Z,73.29
2022-10-15T15:31:19.189Z,74.06
2022-10-15T15:33:47.882Z,74.17
2022-10-15T15:36:22.531Z,74.25
2022-10-15T15:38:52.498Z,74.35
2022-10-15T15:41:24.189Z,74.49
2022-10-15T15:43:55.270Z,74.62
2022-10-15T15:46:23.980Z,74.75
2022-10-15T15:48:52.491Z,74.89
2022-10-15T15:51:32.188Z,75.05
2022-10-15T15:54:04.902Z,75.12
2022-10-15T15:56:35.269Z,75.32
2022-10-15T15:59:03.930Z,75.41
2022-10-15T16:01:32.550Z,75.57
2022-10-15T16:04:01.091Z,75.70
2022-10-15T16:06:29.659Z,75.92
2022-10-15T16:09:00.011Z,76.19
2022-10-15T16:11:28.674Z,76.59
2022-10-15T16:13:57.452Z,76.79
2022-10-15T16:16:27.152Z,77.21
2022-10-15T16:18:56.074Z,77.44
2022-10-15T16:21:29.054Z,77.37
2022-10-15T16:23:57.684Z,77.41
2022-10-15T16:26:26.971Z,77.47
2022-10-15T16:28:56.083Z,77.52
2022-10-15T16:31:30.401Z,77.56
2022-10-15T16:33:59.719Z,77.62
2022-10-15T16:36:28.450Z,77.63
2022-10-15T16:38:57.130Z,77.60
2022-10-15T16:41:25.710Z,77.61
2022-10-15T16:43:54.613Z,77.67
2022-10-15T16:46:23.314Z,77.76
2022-10-15T16:48:57.170Z,77.83
2022-10-15T16:51:27.130Z,77.95
2022-10-15T16:53:56.569Z,78.07
2022-10-15T16:56:29.467Z,78.11
2022-10-15T16:58:59.350Z,78.15
2022-10-15T17:01:30.564Z,78.18
2022-10-15T17:04:00.096Z,78.20
2022-10-15T17:06:31.528Z,78.21
2022-10-15T17:09:05.591Z,78.34
2022-10-15T17:11:44.415Z,78.48
2022-10-15T17:14:17.152Z,78.51
2022-10-15T17:16:52.184Z,78.51
2022-10-15T17:19:28.915Z,78.51
2022-10-15T17:22:00.624Z,78.58
2022-10-15T17:24:29.678Z,78.61
2022-10-15T17:26:58.517Z,78.70
2022-10-15T17:29:30.731Z,78.78
2022-10-15T17:32:03.344Z,78.85
2022-10-15T17:34:32.150Z,78.92
2022-10-15T17:37:01.027Z,78.87
2022-10-15T17:39:29.708Z,78.90
2022-10-15T17:41:58.707Z,78.94
2022-10-15T17:44:27.607Z,78.99
2022-10-15T17:46:56.190Z,79.07
2022-10-15T17:49:25.168Z,79.21
2022-10-15T17:51:53.866Z,79.20
2022-10-15T17:54:22.555Z,79.20
2022-10-15T17:56:51.240Z,79.20
2022-10-15T17:59:19.929Z,79.22
2022-10-15T18:02:03.740Z,79.34
2022-10-15T18:04:32.648Z,79.52
2022-10-15T18:07:01.349Z,79.84
2022-10-15T18:09:30.226Z,79.99
2022-10-15T18:12:01.870Z,80.27
2022-10-15T18:14:30.813Z,80.43
2022-10-15T18:16:59.684Z,80.50
2022-10-15T18:19:28.767Z,80.63
2022-10-15T18:21:58.096Z,80.79
2022-10-15T18:24:26.771Z,81.00
2022-10-15T18:26:55.851Z,81.12
2022-10-15T18:29:25.669Z,81.25
2022-10-15T18:31:57.739Z,81.47
2022-10-15T18:34:28.516Z,81.59
2022-10-15T18:36:57.967Z,81.78
2022-10-15T18:39:27.353Z,81.95
2022-10-15T18:41:56.469Z,82.25
2022-10-15T18:44:25.821Z,82.40
2022-10-15T18:46:54.760Z,82.49
2022-10-15T18:49:23.456Z,82.57
2022-10-15T18:51:53.358Z,82.76
2022-10-15T18:54:23.028Z,82.99
2022-10-15T18:56:53.177Z,83.23
2022-10-15T18:59:21.776Z,83.46
2022-10-15T19:01:51.163Z,83.73
2022-10-15T19:04:21.878Z,83.80
2022-10-15T19:06:54.153Z,83.88
2022-10-15T19:09:26.588Z,84.09
2022-10-15T19:11:57.315Z,84.21
2022-10-15T19:14:31.234Z,84.33
2022-10-15T19:16:59.990Z,84.43
2022-10-15T19:19:29.389Z,84.57
2022-10-15T19:21:58.488Z,84.60
2022-10-15T19:24:27.293Z,84.60
2022-10-15T19:26:56.234Z,84.74
2022-10-15T19:29:25.178Z,84.88
2022-10-15T19:31:55.025Z,85.02
2022-10-15T19:34:25.506Z,85.33
2022-10-15T19:36:53.996Z,85.62
2022-10-15T19:39:24.427Z,85.92
2022-10-15T19:41:54.000Z,86.14
2022-10-15T19:44:26.146Z,86.15
2022-10-15T19:46:56.816Z,86.23
2022-10-15T19:49:26.179Z,86.37
2022-10-15T19:51:56.334Z,86.67
2022-10-15T19:56:58.747Z,86.89
2022-10-15T19:59:27.648Z,86.92
2022-10-15T20:01:56.306Z,86.93
2022-10-15T20:04:25.116Z,86.97
2022-10-15T20:06:53.678Z,87.09
2022-10-15T20:09:22.389Z,87.28
2022-10-15T20:11:51.075Z,87.27
2022-10-15T20:14:19.850Z,87.31
2022-10-15T20:16:48.746Z,87.32
2022-10-15T20:19:17.534Z,87.30
2022-10-15T20:21:46.239Z,87.44
2022-10-15T20:24:14.980Z,87.48
2022-10-15T20:26:43.810Z,87.59
2022-10-15T20:29:17.708Z,87.63
2022-10-15T20:31:46.610Z,87.62
2022-10-15T20:34:15.485Z,87.58
2022-10-15T20:36:44.276Z,87.58
2022-10-15T20:39:13.058Z,87.68
2022-10-15T20:41:41.758Z,87.69
2022-10-15T20:44:13.354Z,87.70
2022-10-15T20:46:55.316Z,87.70
2022-10-15T20:49:35.973Z,87.69
2022-10-15T20:52:05.561Z,87.61
2022-10-15T20:54:35.298Z,87.61
2022-10-15T20:57:05.407Z,87.70
2022-10-15T20:59:34.305Z,87.74
2022-10-15T21:02:02.885Z,87.72
2022-10-15T21:04:31.673Z,87.71
2022-10-15T21:07:00.576Z,87.71
2022-10-15T21:09:29.369Z,87.78
2022-10-15T21:11:58.142Z,87.80
2022-10-15T21:14:27.017Z,87.82
2022-10-15T21:16:55.529Z,87.84
2022-10-15T21:19:24.423Z,87.87
2022-10-15T21:21:53.086Z,87.81
2022-10-15T21:24:21.688Z,87.91
2022-10-15T21:26:50.354Z,88.00
2022-10-15T21:29:18.835Z,88.00
2022-10-15T21:31:48.127Z,88.00
2022-10-15T21:34:16.619Z,87.99
2022-10-15T21:36:45.107Z,88.00
2022-10-15T21:39:13.604Z,88.02
2022-10-15T21:41:42.295Z,88.10
2022-10-15T21:44:10.971Z,88.19
2022-10-15T21:46:43.723Z,88.29
2022-10-15T21:49:14.317Z,88.41
2022-10-15T21:51:42.964Z,88.45
2022-10-15T21:54:11.748Z,88.45
2022-10-15T21:56:40.644Z,88.24
2022-10-15T21:59:14.580Z,88.23
2022-10-15T22:01:57.401Z,88.21
2022-10-15T22:04:26.999Z,88.19
2022-10-15T22:06:56.197Z,88.29
2022-10-15T22:09:26.327Z,88.27
2022-10-15T22:11:55.877Z,88.21
2022-10-15T22:14:27.967Z,88.15
2022-10-15T22:16:57.179Z,87.95
2022-10-15T22:19:29.347Z,87.80
2022-10-15T22:22:09.288Z,87.65
2022-10-15T22:24:42.048Z,87.59
2022-10-15T22:27:10.795Z,87.55
2022-10-15T22:29:45.108Z,87.57
2022-10-15T22:32:29.778Z,87.58
2022-10-15T22:35:03.447Z,87.50
2022-10-15T22:37:32.476Z,87.53
2022-10-15T22:40:00.865Z,87.52
2022-10-15T22:42:36.109Z,87.43
2022-10-15T22:45:26.911Z,87.43
2022-10-15T22:47:55.453Z,87.51
2022-10-15T22:50:23.959Z,87.55
2022-10-15T22:52:52.474Z,87.58
2022-10-15T22:55:24.856Z,87.81
2022-10-15T22:57:59.732Z,87.87
2022-10-15T23:00:37.019Z,87.89
2022-10-15T23:03:12.330Z,88.03
2022-10-15T23:05:40.836Z,88.03
2022-10-15T23:10:40.886Z,87.88
2022-10-15T23:13:12.460Z,87.82
2022-10-15T23:15:49.724Z,87.87
2022-10-15T23:18:18.128Z,87.91
2022-10-15T23:20:48.983Z,87.93
2022-10-15T23:23:21.175Z,87.99
2022-10-15T23:25:51.046Z,87.90
2022-10-15T23:28:19.530Z,87.84
2022-10-15T23:30:48.036Z,87.78
2022-10-15T23:33:16.571Z,87.70
2022-10-15T23:36:05.412Z,87.62
2022-10-15T23:38:33.826Z,87.55
2022-10-15T23:41:08.444Z,87.40
2022-10-15T23:43:39.775Z,87.49
2022-10-15T23:46:09.144Z,87.56
2022-10-15T23:48:42.336Z,87.55
2022-10-15T23:51:36.965Z,87.60
2022-10-15T23:54:18.446Z,87.51
2022-10-15T23:56:50.173Z,87.41
2022-10-15T23:59:26.879Z,87.53
